Time;durP1;ratioP1;P1;durP2;ratioP2;P2;SDS_P1;SDS_P2;PMS_P1;PMS_P2;Temp;Humidity;BMP_temperature;BMP_pressure;BME280_temperature;BME280_humidity;BME280_pressure;Samples;Min_cycle;Max_cycle;Signal;HPM_P1;HPM_P2
2021/05/01 00:01:34;;;;;;;26.20;16.50;;;8.40;99.90;;;;;;5085871;28;20394;-80
2021/05/01 00:04:01;;;;;;;27.63;16.05;;;8.50;99.90;;;;;;5099778;28;20031;-80
2021/05/01 00:06:27;;;;;;;19.33;14.07;;;8.40;99.90;;;;;;5104776;28;20028;-77
2021/05/01 00:09:06;;;;;;;22.23;14.15;;;8.40;99.90;;;;;;5105751;28;20051;-76
2021/05/01 00:11:33;;;;;;;20.30;14.75;;;8.50;99.90;;;;;;5104996;28;20391;-77
2021/05/01 00:13:59;;;;;;;20.88;13.05;;;8.50;99.90;;;;;;5104509;28;20485;-77
2021/05/01 00:16:27;;;;;;;21.80;13.98;;;8.50;99.90;;;;;;5106319;28;20036;-77
2021/05/01 00:18:55;;;;;;;17.30;13.80;;;8.50;99.90;;;;;;5070815;28;20060;-77
2021/05/01 00:21:25;;;;;;;22.92;13.93;;;8.40;99.90;;;;;;5085503;28;20051;-77
2021/05/01 00:23:52;;;;;;;25.05;14.27;;;8.40;99.90;;;;;;5105570;28;20047;-77
2021/05/01 00:26:18;;;;;;;16.92;14.05;;;8.40;99.90;;;;;;5102913;28;20047;-77
2021/05/01 00:28:45;;;;;;;23.70;13.02;;;8.30;99.90;;;;;;5105714;28;20513;-77
2021/05/01 00:31:13;;;;;;;20.08;15.00;;;8.30;99.90;;;;;;5086482;28;20513;-77
2021/05/01 00:33:40;;;;;;;22.88;16.17;;;8.30;99.90;;;;;;5088709;28;20059;-77
2021/05/01 00:36:07;;;;;;;23.85;17.45;;;8.30;99.90;;;;;;5088754;28;20040;-75
2021/05/01 00:38:34;;;;;;;21.23;14.32;;;8.30;99.90;;;;;;5087309;28;20047;-75
2021/05/01 00:41:00;;;;;;;22.48;16.02;;;8.30;99.90;;;;;;5102700;28;20044;-75
2021/05/01 00:43:27;;;;;;;26.92;18.55;;;8.20;99.90;;;;;;5103821;28;20043;-75
2021/05/01 00:45:55;;;;;;;22.45;16.83;;;8.30;99.90;;;;;;5103472;28;20596;-75
2021/05/01 00:48:21;;;;;;;24.15;17.42;;;8.20;99.90;;;;;;5105075;28;20031;-76
2021/05/01 00:50:48;;;;;;;26.80;18.38;;;8.20;99.90;;;;;;5103009;28;20036;-75
2021/05/01 00:53:14;;;;;;;22.02;16.77;;;8.20;99.90;;;;;;5088069;28;20039;-75
2021/05/01 00:55:43;;;;;;;27.90;19.98;;;8.10;99.90;;;;;;5103169;28;20512;-75
2021/05/01 00:58:11;;;;;;;24.45;18.45;;;8.10;99.90;;;;;;5106711;28;20031;-76
2021/05/01 01:03:04;;;;;;;28.25;18.20;;;8.00;99.90;;;;;;5088764;28;21090;-75
2021/05/01 01:05:31;;;;;;;25.90;17.75;;;8.00;99.90;;;;;;5105330;28;20050;-75
2021/05/01 01:07:57;;;;;;;26.13;18.92;;;8.00;99.90;;;;;;5106408;28;20036;-75
2021/05/01 01:10:24;;;;;;;26.98;19.38;;;8.00;99.90;;;;;;5103776;28;20048;-75
2021/05/01 01:12:50;;;;;;;30.45;20.00;;;8.00;99.90;;;;;;5105817;28;20044;-75
2021/05/01 01:15:25;;;;;;;29.08;19.95;;;8.00;99.90;;;;;;5102806;28;20047;-75
2021/05/01 01:17:52;;;;;;;25.55;18.25;;;7.90;99.90;;;;;;5102045;28;20479;-75
2021/05/01 01:20:19;;;;;;;24.42;18.30;;;7.90;99.90;;;;;;5086847;28;20082;-75
2021/05/01 01:22:46;;;;;;;24.98;19.23;;;7.90;99.90;;;;;;5068761;28;20406;-75
2021/05/01 01:25:13;;;;;;;29.08;18.92;;;7.80;99.90;;;;;;5104278;28;20050;-75
2021/05/01 01:27:44;;;;;;;23.63;16.65;;;7.80;99.90;;;;;;5086814;28;20055;-76
2021/05/01 01:30:13;;;;;;;27.83;18.92;;;7.70;99.90;;;;;;5104330;28;20028;-75
2021/05/01 01:32:40;;;;;;;31.55;19.25;;;7.70;99.90;;;;;;5103115;28;20506;-75
2021/05/01 01:35:09;;;;;;;30.08;18.50;;;7.60;99.90;;;;;;5103159;28;20042;-78
2021/05/01 01:37:37;;;;;;;26.75;16.63;;;7.50;99.90;;;;;;5103110;28;20043;-79
2021/05/01 01:40:04;;;;;;;25.27;17.10;;;7.50;99.90;;;;;;5105008;28;20469;-76
2021/05/01 01:42:30;;;;;;;24.77;19.40;;;7.50;99.90;;;;;;5104838;28;20062;-75
2021/05/01 01:44:57;;;;;;;26.80;19.15;;;7.40;99.90;;;;;;5087149;28;20031;-76
2021/05/01 01:47:23;;;;;;;27.58;19.33;;;7.40;99.90;;;;;;5104612;28;20398;-75
2021/05/01 01:49:50;;;;;;;28.92;18.92;;;7.40;99.90;;;;;;5103990;28;20509;-75
2021/05/01 01:52:16;;;;;;;32.55;20.70;;;7.40;99.90;;;;;;5067648;28;20059;-75
2021/05/01 01:54:43;;;;;;;26.35;18.45;;;7.40;99.90;;;;;;5086452;28;20048;-76
2021/05/01 01:57:10;;;;;;;24.75;18.30;;;7.30;99.90;;;;;;5101114;28;20051;-75
2021/05/01 01:59:36;;;;;;;27.70;20.40;;;7.30;99.90;;;;;;5101013;28;20269;-75
2021/05/01 02:02:03;;;;;;;33.60;19.13;;;7.30;99.90;;;;;;5104087;28;20050;-75
2021/05/01 02:04:30;;;;;;;27.70;20.65;;;7.30;99.90;;;;;;5086867;28;20039;-75
2021/05/01 02:06:57;;;;;;;31.60;20.35;;;7.20;99.90;;;;;;5099385;28;20047;-75
2021/05/01 02:09:23;;;;;;;24.85;18.85;;;7.30;99.90;;;;;;5085251;28;20031;-75
2021/05/01 02:11:50;;;;;;;27.17;19.77;;;7.30;99.90;;;;;;5102136;28;20028;-75
2021/05/01 02:14:23;;;;;;;30.70;20.95;;;7.20;99.90;;;;;;5101816;28;20035;-76
2021/05/01 02:16:49;;;;;;;28.85;20.02;;;7.20;99.90;;;;;;5103845;28;20039;-75
2021/05/01 02:19:16;;;;;;;32.42;21.52;;;7.10;99.90;;;;;;5099524;28;20043;-75
2021/05/01 02:21:42;;;;;;;32.88;22.10;;;7.10;99.90;;;;;;5099268;28;20063;-75
2021/05/01 02:24:09;;;;;;;26.23;20.17;;;7.10;99.90;;;;;;5087981;28;20040;-75
2021/05/01 02:26:36;;;;;;;24.25;17.90;;;7.10;99.90;;;;;;5099769;28;20036;-78
2021/05/01 02:29:02;;;;;;;29.75;20.38;;;7.10;99.90;;;;;;5101798;28;20042;-78
2021/05/01 02:31:29;;;;;;;27.67;18.85;;;7.00;99.90;;;;;;5102983;28;20048;-81
2021/05/01 02:33:55;;;;;;;27.90;18.63;;;6.90;99.90;;;;;;5103907;28;20050;-81
2021/05/01 02:36:22;;;;;;;27.00;18.90;;;6.90;99.90;;;;;;5105254;28;20531;-81
2021/05/01 02:38:50;;;;;;;25.80;18.38;;;6.90;99.90;;;;;;5101383;28;20035;-81
2021/05/01 02:41:17;;;;;;;28.42;20.08;;;6.80;99.90;;;;;;5087724;28;20481;-81
2021/05/01 02:43:44;;;;;;;27.42;19.85;;;6.80;99.90;;;;;;5100421;28;20382;-81
2021/05/01 02:46:10;;;;;;;30.90;18.40;;;6.80;99.90;;;;;;5104687;28;20062;-81
2021/05/01 02:48:37;;;;;;;26.60;19.08;;;6.70;99.90;;;;;;5083298;28;20043;-81
2021/05/01 02:51:04;;;;;;;28.73;18.50;;;6.70;99.90;;;;;;5085727;28;20044;-81
2021/05/01 02:53:30;;;;;;;25.90;19.10;;;6.70;99.90;;;;;;5102390;28;20048;-81
2021/05/01 02:55:57;;;;;;;25.63;17.03;;;6.60;99.90;;;;;;5083265;28;20036;-81
2021/05/01 02:58:23;;;;;;;26.37;18.50;;;6.50;99.90;;;;;;5101665;28;20059;-81
2021/05/01 03:00:50;;;;;;;27.40;17.67;;;6.50;99.90;;;;;;5103612;28;20040;-81
2021/05/01 03:03:17;;;;;;;20.90;17.05;;;6.40;99.90;;;;;;5103766;28;20043;-82
2021/05/01 03:05:43;;;;;;;25.45;17.65;;;6.40;99.90;;;;;;5104439;28;20039;-81
2021/05/01 03:08:10;;;;;;;29.80;18.17;;;6.30;99.90;;;;;;5101815;28;20044;-81
2021/05/01 03:10:36;;;;;;;20.90;15.60;;;6.30;99.90;;;;;;5085577;28;20048;-81
2021/05/01 03:13:03;;;;;;;19.15;14.63;;;6.20;99.90;;;;;;5102849;28;20036;-80
2021/05/01 03:15:29;;;;;;;20.92;16.30;;;6.20;99.90;;;;;;5103300;28;20052;-81
2021/05/01 03:17:57;;;;;;;21.48;15.10;;;6.10;99.90;;;;;;5084125;28;20040;-81
2021/05/01 03:20:24;;;;;;;25.35;15.90;;;6.10;99.90;;;;;;5101473;28;20027;-81
2021/05/01 03:22:50;;;;;;;22.83;16.02;;;6.10;99.90;;;;;;5068461;28;20028;-81
2021/05/01 03:25:18;;;;;;;19.15;13.90;;;6.10;99.90;;;;;;5081456;28;20036;-81
2021/05/01 03:27:45;;;;;;;24.73;15.77;;;6.00;99.90;;;;;;5102235;28;20047;-82
2021/05/01 03:30:17;;;;;;;22.70;15.50;;;6.00;99.90;;;;;;5102466;28;20490;-81
2021/05/01 03:32:44;;;;;;;20.25;15.30;;;5.90;99.90;;;;;;5086664;28;20401;-81
2021/05/01 03:35:12;;;;;;;24.57;16.90;;;5.90;99.90;;;;;;5082831;28;20051;-81
2021/05/01 03:37:39;;;;;;;24.08;15.45;;;5.90;99.90;;;;;;5085843;28;20047;-78
2021/05/01 03:40:07;;;;;;;21.90;16.47;;;5.80;99.90;;;;;;5100714;28;20040;-78
2021/05/01 03:42:34;;;;;;;26.58;16.33;;;5.80;99.90;;;;;;5102035;28;20035;-78
2021/05/01 03:45:01;;;;;;;22.45;15.63;;;5.80;99.90;;;;;;5100626;28;20039;-78
2021/05/01 03:47:28;;;;;;;23.45;16.02;;;5.70;99.90;;;;;;5103115;28;20052;-78
2021/05/01 03:49:56;;;;;;;25.08;16.77;;;5.70;99.90;;;;;;5080899;28;20058;-78
2021/05/01 03:52:23;;;;;;;22.10;15.05;;;5.60;99.90;;;;;;5101676;28;20079;-77
2021/05/01 03:54:50;;;;;;;26.40;16.90;;;5.60;99.90;;;;;;5081216;28;20048;-78
2021/05/01 03:57:16;;;;;;;22.70;16.13;;;5.60;99.90;;;;;;5100135;28;20043;-78
2021/05/01 03:59:43;;;;;;;22.57;16.60;;;5.50;99.90;;;;;;5080608;28;20036;-78
2021/05/01 04:02:09;;;;;;;25.37;17.50;;;5.60;99.90;;;;;;5085757;28;20031;-77
2021/05/01 04:04:36;;;;;;;26.07;16.80;;;5.50;99.90;;;;;;5102292;28;20043;-78
2021/05/01 04:07:02;;;;;;;25.67;16.52;;;5.50;99.90;;;;;;5098449;28;20056;-77
2021/05/01 04:09:29;;;;;;;21.40;15.68;;;5.40;99.90;;;;;;5100153;28;20059;-77
2021/05/01 04:11:55;;;;;;;20.37;15.73;;;5.40;99.90;;;;;;5101443;28;20555;-77
2021/05/01 04:14:22;;;;;;;22.93;16.53;;;5.40;99.90;;;;;;5085525;28;20509;-77
2021/05/01 04:16:48;;;;;;;23.20;16.63;;;5.40;99.90;;;;;;5099097;28;20031;-77
2021/05/01 04:19:15;;;;;;;22.53;16.80;;;5.40;99.90;;;;;;5083796;28;20048;-77
2021/05/01 04:21:49;;;;;;;22.87;17.43;;;5.30;99.90;;;;;;5099539;28;20838;-77
2021/05/01 04:24:16;;;;;;;22.43;16.93;;;5.30;99.90;;;;;;5085134;28;20052;-77
2021/05/01 04:26:43;;;;;;;27.47;16.97;;;5.30;99.90;;;;;;5102202;28;20059;-77
2021/05/01 04:29:09;;;;;;;21.70;15.87;;;5.30;99.90;;;;;;5067292;28;20054;-77
2021/05/01 04:31:36;;;;;;;20.67;17.70;;;5.30;99.90;;;;;;5081772;28;20048;-76
2021/05/01 04:34:02;;;;;;;21.53;17.77;;;5.30;99.90;;;;;;5082224;28;20039;-77
2021/05/01 04:36:29;;;;;;;29.60;21.47;;;5.30;99.90;;;;;;5100011;28;20043;-77
2021/05/01 04:38:55;;;;;;;32.13;21.20;;;5.30;99.90;;;;;;5071203;28;20470;-77
2021/05/01 04:41:22;;;;;;;30.40;22.60;;;5.30;99.90;;;;;;5085885;28;20039;-77
2021/05/01 04:43:49;;;;;;;33.07;23.63;;;5.40;99.90;;;;;;5067001;28;20048;-77
2021/05/01 04:46:19;;;;;;;32.13;23.43;;;5.40;99.90;;;;;;5084041;28;20052;-76
2021/05/01 04:48:46;;;;;;;34.93;23.20;;;5.40;99.90;;;;;;5098973;28;20557;-77
2021/05/01 04:51:12;;;;;;;36.60;25.33;;;5.40;99.90;;;;;;5103016;28;20075;-77
2021/05/01 04:53:39;;;;;;;36.37;24.57;;;5.50;99.90;;;;;;5086410;28;20048;-77
2021/05/01 04:56:06;;;;;;;37.60;24.60;;;5.50;99.90;;;;;;5103144;28;20043;-77
2021/05/01 04:58:32;;;;;;;37.37;22.40;;;5.60;99.90;;;;;;5083678;28;20501;-76
2021/05/01 05:00:59;;;;;;;29.40;22.33;;;5.60;99.90;;;;;;5087518;28;20031;-77
2021/05/01 05:03:26;;;;;;;29.90;21.75;;;5.70;99.90;;;;;;5105307;28;20039;-77
2021/05/01 05:05:53;;;;;;;32.07;22.60;;;5.80;99.90;;;;;;5070804;28;20466;-77
2021/05/01 05:08:19;;;;;;;33.27;22.27;;;5.90;99.90;;;;;;5052221;28;20379;-77
2021/05/01 05:10:46;;;;;;;33.00;22.03;;;5.90;99.90;;;;;;5103740;28;20035;-77
2021/05/01 05:13:13;;;;;;;27.23;21.17;;;6.00;99.90;;;;;;5106035;28;20047;-77
2021/05/01 05:15:39;;;;;;;29.20;22.00;;;6.00;99.90;;;;;;5102627;28;20540;-77
2021/05/01 05:18:05;;;;;;;27.93;20.30;;;6.10;99.90;;;;;;5104434;28;20036;-77
2021/05/01 05:20:32;;;;;;;28.93;21.80;;;6.20;99.90;;;;;;5104806;28;20040;-78
2021/05/01 05:22:58;;;;;;;27.70;20.40;;;6.20;99.90;;;;;;5103721;28;20059;-78
2021/05/01 05:25:25;;;;;;;26.93;20.30;;;6.30;99.90;;;;;;5105072;28;20044;-77
2021/05/01 05:27:51;;;;;;;27.10;19.47;;;6.30;99.90;;;;;;5101914;28;20036;-77
2021/05/01 05:30:18;;;;;;;24.13;19.48;;;6.40;99.90;;;;;;5060149;28;20031;-77
2021/05/01 05:32:44;;;;;;;26.85;19.70;;;6.40;99.90;;;;;;5070724;28;20035;-77
2021/05/01 05:35:11;;;;;;;27.97;20.50;;;6.40;99.90;;;;;;5101623;28;20055;-77
2021/05/01 05:37:38;;;;;;;26.90;20.60;;;6.50;99.90;;;;;;5088015;28;20043;-77
2021/05/01 05:40:05;;;;;;;26.60;20.83;;;6.60;99.90;;;;;;5075184;28;20036;-77
2021/05/01 05:42:34;;;;;;;26.33;20.33;;;6.70;99.90;;;;;;5103816;28;20032;-77
2021/05/01 05:45:00;;;;;;;26.70;20.27;;;6.90;99.90;;;;;;5085478;28;20490;-77
2021/05/01 05:47:27;;;;;;;26.05;19.90;;;7.00;99.90;;;;;;5087774;28;20040;-77
2021/05/01 05:49:54;;;;;;;29.93;22.50;;;7.20;99.90;;;;;;5052149;28;20048;-77
2021/05/01 05:52:20;;;;;;;25.25;19.92;;;7.30;99.90;;;;;;5085060;28;20056;-77
2021/05/01 05:54:47;;;;;;;27.17;20.27;;;7.50;99.90;;;;;;5069853;28;20157;-77
2021/05/01 05:57:14;;;;;;;24.48;18.50;;;7.60;99.90;;;;;;5084566;28;20036;-76
2021/05/01 05:59:42;;;;;;;19.67;17.13;;;7.80;99.90;;;;;;5101673;28;20500;-76
2021/05/01 06:02:15;;;;;;;25.25;18.10;;;8.00;99.90;;;;;;5102096;28;20036;-76
2021/05/01 06:04:51;;;;;;;25.35;17.33;;;8.10;99.90;;;;;;5103405;28;20524;-76
2021/05/01 06:07:35;;;;;;;22.58;18.52;;;8.30;99.90;;;;;;5103236;28;20035;-76
2021/05/01 06:10:06;;;;;;;20.90;17.02;;;8.50;99.90;;;;;;5083414;28;20066;-76
2021/05/01 06:12:34;;;;;;;26.60;18.52;;;8.60;99.90;;;;;;5082669;28;20052;-77
2021/05/01 06:15:08;;;;;;;23.25;16.77;;;8.80;99.90;;;;;;5067186;28;20051;-77
2021/05/01 06:17:36;;;;;;;25.88;18.20;;;8.90;99.90;;;;;;5082302;28;20027;-76
2021/05/01 06:20:04;;;;;;;21.63;18.60;;;9.00;99.90;;;;;;5067821;28;20031;-77
2021/05/01 06:22:32;;;;;;;21.92;17.83;;;9.10;99.90;;;;;;5070602;28;20035;-77
2021/05/01 06:24:59;;;;;;;26.60;19.35;;;9.30;99.90;;;;;;5099776;28;20032;-77
2021/05/01 06:27:27;;;;;;;27.60;19.55;;;9.40;99.90;;;;;;5086166;28;20399;-80
2021/05/01 06:29:54;;;;;;;23.55;19.50;;;9.60;99.90;;;;;;5066111;28;20192;-81
2021/05/01 06:32:21;;;;;;;21.85;18.75;;;9.70;99.90;;;;;;5104477;28;20481;-81
2021/05/01 06:34:51;;;;;;;26.63;19.27;;;9.90;99.90;;;;;;5085242;28;20361;-80
2021/05/01 06:37:19;;;;;;;23.95;17.85;;;10.00;99.90;;;;;;5103026;28;20027;-80
2021/05/01 06:39:48;;;;;;;24.17;19.02;;;10.20;99.90;;;;;;5103696;28;20042;-81
2021/05/01 06:42:29;;;;;;;20.48;17.42;;;10.40;99.90;;;;;;5082795;28;20043;-81
2021/05/01 06:45:19;;;;;;;18.85;16.27;;;10.60;99.70;;;;;;5103101;28;20042;-81
2021/05/01 06:48:01;;;;;;;21.58;15.88;;;10.90;99.00;;;;;;5104015;28;20036;-80
2021/05/01 06:50:29;;;;;;;22.30;15.30;;;11.00;98.50;;;;;;5063857;28;20406;-80
2021/05/01 06:52:57;;;;;;;21.85;16.00;;;11.10;98.30;;;;;;5087053;28;20050;-80
2021/05/01 06:55:26;;;;;;;18.85;14.68;;;11.10;98.00;;;;;;5100286;28;20043;-80
2021/05/01 06:57:55;;;;;;;23.67;15.90;;;11.10;97.80;;;;;;5103584;28;20121;-81
2021/05/01 07:00:23;;;;;;;20.42;13.95;;;11.10;97.20;;;;;;5098898;28;20696;-81
2021/05/01 07:02:54;;;;;;;16.90;12.82;;;11.00;97.50;;;;;;5066357;28;20035;-79
2021/05/01 07:05:23;;;;;;;15.90;11.38;;;11.10;97.60;;;;;;5083524;28;20671;-80
2021/05/01 07:07:57;;;;;;;15.18;10.77;;;11.10;97.20;;;;;;5102291;28;20051;-80
2021/05/01 07:10:25;;;;;;;13.15;9.57;;;11.10;97.10;;;;;;5083271;28;20039;-80
2021/05/01 07:13:03;;;;;;;15.65;10.23;;;11.00;97.10;;;;;;5101209;28;20418;-80
2021/05/01 07:15:30;;;;;;;12.65;9.18;;;10.90;97.10;;;;;;5052107;28;20514;-80
2021/05/01 07:17:56;;;;;;;15.32;9.07;;;10.70;97.30;;;;;;5067245;28;20399;-80
2021/05/01 07:20:24;;;;;;;13.60;8.05;;;10.60;97.10;;;;;;5083198;28;20044;-80
2021/05/01 07:22:54;;;;;;;17.02;8.02;;;10.70;97.10;;;;;;5097705;28;20376;-80
2021/05/01 07:25:22;;;;;;;10.32;7.53;;;10.90;97.20;;;;;;5101749;28;20473;-81
2021/05/01 07:28:05;;;;;;;11.77;6.07;;;10.80;96.10;;;;;;5101804;28;20401;-80
2021/05/01 07:30:38;;;;;;;9.18;5.20;;;10.70;96.20;;;;;;5083404;28;20036;-81
2021/05/01 07:33:11;;;;;;;7.93;5.28;;;10.60;95.90;;;;;;5104402;27;20105;-80
2021/05/01 07:35:40;;;;;;;12.95;6.22;;;10.50;95.60;;;;;;5101247;28;20042;-80
2021/05/01 07:38:12;;;;;;;11.38;5.55;;;10.50;95.70;;;;;;5099738;28;20042;-80
2021/05/01 07:40:39;;;;;;;11.25;5.50;;;10.50;95.50;;;;;;5103100;28;20031;-80
2021/05/01 07:43:14;;;;;;;11.38;5.05;;;10.60;95.70;;;;;;5101131;28;20034;-80
2021/05/01 07:45:41;;;;;;;7.38;4.00;;;10.70;95.20;;;;;;5101215;28;20141;-80
2021/05/01 07:48:11;;;;;;;10.77;3.78;;;10.80;95.50;;;;;;5102283;28;20040;-81
2021/05/01 07:50:37;;;;;;;7.13;3.65;;;11.10;95.70;;;;;;5084059;28;20052;-80
2021/05/01 07:53:04;;;;;;;7.35;4.15;;;11.40;94.90;;;;;;5103982;28;20481;-80
2021/05/01 07:55:31;;;;;;;14.10;4.30;;;11.60;94.10;;;;;;5101466;28;20039;-80
2021/05/01 07:57:57;;;;;;;10.30;3.88;;;11.70;93.20;;;;;;5101387;28;20402;-80
2021/05/01 08:00:24;;;;;;;8.15;3.38;;;11.70;92.70;;;;;;5083418;28;20043;-80
2021/05/01 08:02:50;;;;;;;8.93;4.97;;;11.50;92.50;;;;;;5099651;28;20437;-80
2021/05/01 08:05:18;;;;;;;9.45;4.10;;;11.30;92.50;;;;;;5102126;28;20032;-80
2021/05/01 08:07:45;;;;;;;8.90;4.75;;;11.20;93.10;;;;;;5084517;28;20494;-80
2021/05/01 08:10:12;;;;;;;10.35;4.60;;;11.40;92.80;;;;;;5100533;28;20049;-80
2021/05/01 08:12:48;;;;;;;7.00;4.47;;;11.70;92.80;;;;;;5104169;28;20035;-80
2021/05/01 08:15:15;;;;;;;6.35;3.95;;;11.90;91.90;;;;;;5100353;28;20039;-80
2021/05/01 08:17:42;;;;;;;7.13;4.63;;;12.30;91.00;;;;;;5100910;28;20040;-80
2021/05/01 08:20:11;;;;;;;6.97;3.78;;;12.50;90.10;;;;;;5099083;28;20055;-80
2021/05/01 08:22:38;;;;;;;6.18;4.03;;;12.50;90.40;;;;;;5102875;28;20031;-80
2021/05/01 08:25:10;;;;;;;7.57;4.80;;;12.50;89.60;;;;;;5100692;28;20040;-80
2021/05/01 08:27:37;;;;;;;8.43;4.35;;;12.30;86.90;;;;;;5087894;28;20032;-80
2021/05/01 08:30:07;;;;;;;8.95;4.47;;;12.00;86.50;;;;;;5106213;28;20695;-81
2021/05/01 08:32:34;;;;;;;9.50;3.40;;;11.90;86.80;;;;;;5106798;28;20048;-80
2021/05/01 08:35:01;;;;;;;5.55;3.22;;;12.00;86.60;;;;;;5103716;28;20051;-80
2021/05/01 08:37:28;;;;;;;7.20;3.70;;;12.30;85.80;;;;;;5106203;28;20031;-79
2021/05/01 08:39:54;;;;;;;7.45;3.58;;;12.50;86.00;;;;;;5105151;28;20038;-81
2021/05/01 08:42:21;;;;;;;5.38;3.40;;;12.90;84.80;;;;;;5100818;28;20122;-80
2021/05/01 08:44:47;;;;;;;5.53;3.60;;;13.20;84.20;;;;;;5106809;28;20047;-80
2021/05/01 08:47:14;;;;;;;7.22;4.22;;;13.50;83.60;;;;;;5105408;28;20047;-81
2021/05/01 08:49:40;;;;;;;14.10;4.93;;;13.80;83.30;;;;;;5105724;28;20059;-81
2021/05/01 08:52:09;;;;;;;5.97;4.10;;;14.10;82.00;;;;;;5086743;28;20530;-81
2021/05/01 08:54:35;;;;;;;6.25;3.17;;;14.20;80.00;;;;;;5106503;28;20058;-81
2021/05/01 08:57:23;;;;;;;7.53;3.10;;;14.20;80.00;;;;;;5088181;28;20043;-80
2021/05/01 08:59:49;;;;;;;5.93;3.22;;;14.20;80.20;;;;;;5101911;28;20513;-81
2021/05/01 09:02:19;;;;;;;6.07;2.90;;;14.10;79.30;;;;;;5068755;28;20521;-81
2021/05/01 09:04:48;;;;;;;6.38;2.85;;;14.00;79.00;;;;;;5088806;28;20036;-81
2021/05/01 09:07:17;;;;;;;4.97;2.97;;;14.00;79.80;;;;;;5102284;28;20043;-80
2021/05/01 09:10:00;;;;;;;6.53;3.45;;;13.80;79.30;;;;;;5105195;28;20043;-80
2021/05/01 09:12:40;;;;;;;5.68;3.30;;;13.60;77.00;;;;;;5101654;28;20054;-81
2021/05/01 09:15:11;;;;;;;5.53;3.05;;;13.30;78.20;;;;;;5104278;28;20039;-80
2021/05/01 09:17:39;;;;;;;8.50;3.72;;;13.10;79.30;;;;;;5103650;28;20036;-81
2021/05/01 09:20:12;;;;;;;7.05;3.50;;;13.00;78.90;;;;;;5105422;28;20043;-80
2021/05/01 09:23:05;;;;;;;11.45;3.78;;;13.00;78.80;;;;;;5105806;28;20405;-80
2021/05/01 09:25:49;;;;;;;5.57;2.90;;;13.10;78.00;;;;;;5104968;28;20047;-81
2021/05/01 09:28:17;;;;;;;8.48;2.95;;;13.30;77.40;;;;;;5086938;28;20039;-81
2021/05/01 09:31:05;;;;;;;5.28;2.97;;;13.60;76.40;;;;;;5101539;28;20051;-81
2021/05/01 09:33:37;;;;;;;5.18;2.60;;;13.70;75.90;;;;;;5100633;28;20055;-81
2021/05/01 09:36:22;;;;;;;7.68;3.10;;;13.80;76.00;;;;;;5105075;28;20031;-80
2021/05/01 09:38:57;;;;;;;5.18;2.40;;;13.90;75.20;;;;;;5104099;28;20047;-81
2021/05/01 09:41:27;;;;;;;6.25;2.22;;;13.70;73.50;;;;;;5087594;28;20040;-80
2021/05/01 09:43:55;;;;;;;5.00;2.03;;;13.60;73.70;;;;;;5102854;28;20047;-80
2021/05/01 09:46:22;;;;;;;5.72;2.30;;;13.40;73.50;;;;;;5102003;28;20047;-80
2021/05/01 09:49:05;;;;;;;5.05;2.58;;;13.30;74.80;;;;;;5102837;28;20028;-81
2021/05/01 09:51:54;;;;;;;5.88;2.80;;;13.10;75.50;;;;;;5105344;28;20819;-81
2021/05/01 09:54:33;;;;;;;7.63;2.53;;;12.90;75.90;;;;;;5069766;28;20505;-80
2021/05/01 09:57:16;;;;;;;4.80;2.40;;;12.80;76.90;;;;;;5104730;28;20498;-81
2021/05/01 09:59:48;;;;;;;8.05;2.50;;;13.00;77.70;;;;;;5103727;27;20035;-81
2021/05/01 10:02:17;;;;;;;5.50;2.92;;;13.30;76.80;;;;;;5104621;28;20394;-81
2021/05/01 10:05:03;;;;;;;4.72;2.60;;;13.40;76.50;;;;;;5104368;28;20592;-80
2021/05/01 10:07:30;;;;;;;6.53;3.05;;;13.80;75.50;;;;;;5104518;28;20414;-80
2021/05/01 10:09:58;;;;;;;5.43;2.90;;;14.10;73.60;;;;;;5102320;28;20079;-81
2021/05/01 10:12:40;;;;;;;7.57;3.05;;;14.30;73.40;;;;;;5085643;28;20040;-80
2021/05/01 10:15:24;;;;;;;17.87;3.50;;;14.60;73.40;;;;;;5101007;28;20066;-83
2021/05/01 10:17:51;;;;;;;5.55;2.20;;;15.10;72.10;;;;;;5103787;28;20051;-81
2021/05/01 10:20:19;;;;;;;11.00;3.47;;;15.60;71.90;;;;;;5086224;28;20047;-81
2021/05/01 10:22:50;;;;;;;7.80;2.33;;;16.00;70.80;;;;;;5103501;28;20039;-81
2021/05/01 10:25:21;;;;;;;7.65;2.97;;;16.10;69.50;;;;;;5094954;28;20039;-81
2021/05/01 10:28:18;;;;;;;7.32;2.28;;;16.00;66.50;;;;;;5101859;28;20036;-81
2021/05/01 10:30:47;;;;;;;4.57;2.00;;;15.80;67.20;;;;;;5102628;28;20035;-81
2021/05/01 10:33:33;;;;;;;4.35;2.40;;;15.50;67.00;;;;;;5102431;28;20053;-81
2021/05/01 10:36:20;;;;;;;6.97;2.10;;;15.00;66.40;;;;;;5099469;28;20032;-79
2021/05/01 10:38:58;;;;;;;5.38;1.90;;;14.60;66.90;;;;;;5102754;28;20039;-80
2021/05/01 10:41:31;;;;;;;5.53;2.23;;;14.20;67.60;;;;;;5101700;28;20031;-81
2021/05/01 10:43:59;;;;;;;5.53;2.28;;;13.90;67.80;;;;;;5101114;28;20035;-81
2021/05/01 10:46:29;;;;;;;6.75;2.15;;;13.60;68.10;;;;;;5102360;28;20058;-82
2021/05/01 10:49:02;;;;;;;3.33;1.88;;;13.40;67.30;;;;;;5094721;28;20051;-81
2021/05/01 10:51:35;;;;;;;4.35;1.73;;;13.20;68.70;;;;;;5102375;28;20046;-80
2021/05/01 10:54:06;;;;;;;3.53;2.25;;;13.00;69.80;;;;;;5102421;28;20036;-82
2021/05/01 10:56:33;;;;;;;6.80;3.15;;;12.90;70.00;;;;;;5079175;28;20044;-82
2021/05/01 10:59:10;;;;;;;6.55;2.88;;;12.70;70.90;;;;;;5094097;28;20040;-82
2021/05/01 11:01:48;;;;;;;6.88;2.60;;;12.60;71.30;;;;;;5100028;28;20019;-84
2021/05/01 11:04:48;;;;;;;4.65;1.58;;;12.50;72.10;;;;;;5115290;27;20043;-81
2021/05/01 11:07:29;;;;;;;4.07;1.85;;;12.60;73.20;;;;;;5087861;28;20051;-82
2021/05/01 11:10:04;;;;;;;4.22;1.63;;;12.80;73.30;;;;;;5096699;28;20367;-82
2021/05/01 11:12:35;;;;;;;4.18;1.70;;;13.00;72.90;;;;;;5099287;28;20042;-82
2021/05/01 11:15:04;;;;;;;3.45;1.60;;;13.20;72.70;;;;;;5082991;28;20040;-82
2021/05/01 11:17:31;;;;;;;4.30;1.70;;;13.50;72.00;;;;;;5100721;28;20069;-82
2021/05/01 11:20:11;;;;;;;4.38;1.50;;;13.80;71.90;;;;;;5104480;28;20036;-80
2021/05/01 11:22:41;;;;;;;2.85;1.20;;;14.10;69.50;;;;;;5106496;28;20031;-81
2021/05/01 11:25:12;;;;;;;5.82;2.00;;;14.40;67.90;;;;;;5106341;28;20044;-82
2021/05/01 11:27:40;;;;;;;3.00;1.10;;;14.90;65.50;;;;;;5104911;28;20035;-81
2021/05/01 11:30:09;;;;;;;3.47;1.20;;;15.30;64.90;;;;;;5082907;28;20062;-83
2021/05/01 11:32:39;;;;;;;3.53;1.30;;;15.70;64.50;;;;;;5108313;28;20063;-82
2021/05/01 11:35:08;;;;;;;3.97;1.30;;;15.90;64.10;;;;;;5106767;28;20043;-82
2021/05/01 11:38:00;;;;;;;2.70;0.82;;;16.10;63.20;;;;;;5107545;28;20039;-82
2021/05/01 11:40:29;;;;;;;3.67;1.33;;;16.00;61.50;;;;;;5108887;28;20040;-82
2021/05/01 11:42:57;;;;;;;2.35;0.93;;;15.80;60.60;;;;;;5086770;28;20491;-83
2021/05/01 11:45:44;;;;;;;3.30;1.20;;;15.70;60.30;;;;;;5087475;28;20027;-82
2021/05/01 11:48:27;;;;;;;4.07;1.20;;;15.50;61.10;;;;;;5085291;28;20899;-82
2021/05/01 11:51:09;;;;;;;3.00;1.70;;;15.30;59.50;;;;;;5104623;28;20058;-81
2021/05/01 11:53:48;;;;;;;6.63;1.30;;;15.00;59.90;;;;;;5106557;28;20040;-81
2021/05/01 11:56:39;;;;;;;6.10;1.20;;;14.70;61.40;;;;;;5086590;28;20510;-83
2021/05/01 11:59:09;;;;;;;2.47;1.00;;;14.50;62.00;;;;;;5087733;28;20049;-82
2021/05/01 12:02:03;;;;;;;2.25;0.73;;;14.20;60.90;;;;;;5088575;28;20043;-82
2021/05/01 12:04:48;;;;;;;1.92;0.90;;;14.00;59.90;;;;;;5095040;28;20065;-81
2021/05/01 12:07:24;;;;;;;2.60;0.93;;;13.70;58.70;;;;;;5106308;28;20043;-84
2021/05/01 12:09:53;;;;;;;2.92;0.70;;;13.50;59.90;;;;;;5097448;28;20036;-84
2021/05/01 12:12:21;;;;;;;2.35;0.90;;;13.40;61.10;;;;;;5106539;28;20028;-82
2021/05/01 12:14:48;;;;;;;3.55;1.00;;;13.50;61.60;;;;;;5105726;28;20039;-82
2021/05/01 12:17:15;;;;;;;3.38;1.38;;;13.60;62.10;;;;;;5105013;28;20063;-82
2021/05/01 12:19:47;;;;;;;4.75;1.50;;;13.80;62.20;;;;;;5071382;28;20048;-82
2021/05/01 12:22:30;;;;;;;3.95;1.05;;;14.10;62.30;;;;;;5107594;28;20042;-82
2021/05/01 12:24:57;;;;;;;3.08;1.42;;;14.50;62.00;;;;;;5101364;28;20035;-82
2021/05/01 12:27:50;;;;;;;2.03;0.95;;;14.90;61.90;;;;;;5085791;28;20517;-82
2021/05/01 12:30:43;;;;;;;4.30;1.27;;;15.30;61.60;;;;;;5088281;28;20066;-82
2021/05/01 12:33:31;;;;;;;3.75;1.05;;;15.50;60.30;;;;;;5106231;28;20036;-82
2021/05/01 12:36:01;;;;;;;3.25;1.58;;;15.70;59.90;;;;;;5104958;28;20406;-82
2021/05/01 12:38:31;;;;;;;4.05;1.23;;;15.80;60.50;;;;;;5106762;28;20034;-83
2021/05/01 12:41:07;;;;;;;2.70;1.00;;;16.00;58.60;;;;;;5088611;28;20359;-82
2021/05/01 12:43:33;;;;;;;6.15;1.08;;;16.00;58.90;;;;;;5092271;28;20040;-82
2021/05/01 12:46:09;;;;;;;3.35;1.42;;;16.00;58.30;;;;;;5090941;28;20040;-82
2021/05/01 12:48:53;;;;;;;4.82;1.20;;;16.00;58.60;;;;;;5089000;28;20031;-82
2021/05/01 12:51:39;;;;;;;4.25;1.23;;;15.90;58.90;;;;;;5105900;28;20058;-82
2021/05/01 12:54:42;;;;;;;3.00;1.50;;;15.70;58.90;;;;;;5101797;28;20024;-82
2021/05/01 12:57:16;;;;;;;5.60;1.30;;;15.40;57.60;;;;;;5089472;28;20059;-82
2021/05/01 12:59:48;;;;;;;3.67;1.42;;;15.20;58.60;;;;;;5104266;28;20043;-82